sensor_id;sensor_type;location;lat;lon;timestamp;pressure;altitude;pressure_sealevel;temperature;humidity
11343;BME280;5726;42.160;24.746;2022-10-23T00:01:12;99925.63;;;13.18;80.93
11343;BME280;5726;42.160;24.746;2022-10-23T00:03:38;99922.00;;;13.09;81.00
11343;BME280;5726;42.160;24.746;2022-10-23T00:06:04;99920.84;;;13.15;80.62
11343;BME280;5726;42.160;24.746;2022-10-23T00:08:29;99918.44;;;13.14;80.80
11343;BME280;5726;42.160;24.746;2022-10-23T00:10:55;99929.47;;;13.44;79.41
11343;BME280;5726;42.160;24.746;2022-10-23T00:13:20;99921.28;;;13.49;78.71
11343;BME280;5726;42.160;24.746;2022-10-23T00:15:46;99915.91;;;13.49;78.71
11343;BME280;5726;42.160;24.746;2022-10-23T00:18:11;99909.03;;;13.56;78.32
11343;BME280;5726;42.160;24.746;2022-10-23T00:20:36;99905.97;;;13.63;77.72
11343;BME280;5726;42.160;24.746;2022-10-23T00:23:02;99896.16;;;13.67;77.51
11343;BME280;5726;42.160;24.746;2022-10-23T00:25:27;99891.56;;;13.54;77.96
11343;BME280;5726;42.160;24.746;2022-10-23T00:27:53;99881.78;;;13.58;77.63
11343;BME280;5726;42.160;24.746;2022-10-23T00:30:18;99889.56;;;13.59;77.78
11343;BME280;5726;42.160;24.746;2022-10-23T00:32:44;99898.84;;;13.67;77.15
11343;BME280;5726;42.160;24.746;2022-10-23T00:35:09;99898.78;;;13.72;76.75
11343;BME280;5726;42.160;24.746;2022-10-23T00:37:35;99899.13;;;13.52;77.94
11343;BME280;5726;42.160;24.746;2022-10-23T00:40:00;99882.19;;;13.65;77.29
11343;BME280;5726;42.160;24.746;2022-10-23T00:42:25;99897.34;;;13.74;76.45
11343;BME280;5726;42.160;24.746;2022-10-23T00:47:16;99890.97;;;13.57;77.03
11343;BME280;5726;42.160;24.746;2022-10-23T00:49:42;99882.94;;;13.25;77.87
11343;BME280;5726;42.160;24.746;2022-10-23T00:52:09;99886.78;;;13.38;77.46
11343;BME280;5726;42.160;24.746;2022-10-23T00:54:39;99882.38;;;13.41;77.47
11343;BME280;5726;42.160;24.746;2022-10-23T00:57:07;99888.56;;;13.42;77.06
11343;BME280;5726;42.160;24.746;2022-10-23T00:59:36;99901.31;;;13.37;77.37
11343;BME280;5726;42.160;24.746;2022-10-23T01:02:01;99889.84;;;13.31;77.76
11343;BME280;5726;42.160;24.746;2022-10-23T01:04:27;99884.75;;;13.30;77.87
11343;BME280;5726;42.160;24.746;2022-10-23T01:07:09;99890.16;;;13.43;77.53
11343;BME280;5726;42.160;24.746;2022-10-23T01:09:58;99886.19;;;13.54;76.70
11343;BME280;5726;42.160;24.746;2022-10-23T01:12:39;99884.00;;;13.56;76.79
11343;BME280;5726;42.160;24.746;2022-10-23T01:15:22;99878.13;;;13.81;75.77
11343;BME280;5726;42.160;24.746;2022-10-23T01:18:00;99882.50;;;13.77;75.53
11343;BME280;5726;42.160;24.746;2022-10-23T01:20:49;99897.16;;;13.71;76.03
11343;BME280;5726;42.160;24.746;2022-10-23T01:23:46;99890.25;;;13.38;78.57
11343;BME280;5726;42.160;24.746;2022-10-23T01:29:17;99896.81;;;13.32;80.11
11343;BME280;5726;42.160;24.746;2022-10-23T01:31:49;99878.91;;;13.68;77.10
11343;BME280;5726;42.160;24.746;2022-10-23T01:34:26;99866.50;;;13.40;79.32
11343;BME280;5726;42.160;24.746;2022-10-23T01:36:53;99872.19;;;13.52;78.86
11343;BME280;5726;42.160;24.746;2022-10-23T01:39:24;99867.91;;;13.24;80.13
11343;BME280;5726;42.160;24.746;2022-10-23T01:41:58;99865.97;;;13.11;81.50
11343;BME280;5726;42.160;24.746;2022-10-23T01:47:07;99867.22;;;13.45;79.45
11343;BME280;5726;42.160;24.746;2022-10-23T01:49:35;99866.75;;;13.57;78.78
11343;BME280;5726;42.160;24.746;2022-10-23T01:52:06;99875.59;;;13.57;78.64
11343;BME280;5726;42.160;24.746;2022-10-23T01:54:35;99866.72;;;13.30;80.54
11343;BME280;5726;42.160;24.746;2022-10-23T01:57:03;99855.91;;;13.17;81.42
11343;BME280;5726;42.160;24.746;2022-10-23T01:59:33;99860.56;;;12.98;83.25
11343;BME280;5726;42.160;24.746;2022-10-23T02:02:02;99861.00;;;13.18;81.62
11343;BME280;5726;42.160;24.746;2022-10-23T02:04:48;99865.81;;;12.71;85.07
11343;BME280;5726;42.160;24.746;2022-10-23T02:07:15;99877.94;;;12.69;86.06
11343;BME280;5726;42.160;24.746;2022-10-23T02:09:40;99874.38;;;12.73;85.76
11343;BME280;5726;42.160;24.746;2022-10-23T02:12:14;99867.31;;;12.95;83.60
11343;BME280;5726;42.160;24.746;2022-10-23T02:14:53;99851.94;;;13.41;80.61
11343;BME280;5726;42.160;24.746;2022-10-23T02:20:54;99878.28;;;12.49;86.27
11343;BME280;5726;42.160;24.746;2022-10-23T02:24:16;99880.28;;;12.57;85.79
11343;BME280;5726;42.160;24.746;2022-10-23T02:26:41;99874.78;;;12.48;86.51
11343;BME280;5726;42.160;24.746;2022-10-23T02:29:14;99888.13;;;12.72;85.62
11343;BME280;5726;42.160;24.746;2022-10-23T02:31:42;99880.38;;;12.52;87.09
11343;BME280;5726;42.160;24.746;2022-10-23T02:34:07;99887.41;;;12.85;84.06
11343;BME280;5726;42.160;24.746;2022-10-23T02:36:33;99883.56;;;12.90;83.62
11343;BME280;5726;42.160;24.746;2022-10-23T02:38:58;99895.56;;;12.80;84.23
11343;BME280;5726;42.160;24.746;2022-10-23T02:41:56;99897.59;;;12.88;83.84
11343;BME280;5726;42.160;24.746;2022-10-23T02:55:35;99923.28;;;12.62;86.39
11343;BME280;5726;42.160;24.746;2022-10-23T03:01:03;99922.09;;;12.68;85.07
11343;BME280;5726;42.160;24.746;2022-10-23T03:03:35;99915.28;;;12.75;83.84
11343;BME280;5726;42.160;24.746;2022-10-23T03:06:02;99920.41;;;12.72;84.30
11343;BME280;5726;42.160;24.746;2022-10-23T03:08:28;99908.38;;;12.88;83.16
11343;BME280;5726;42.160;24.746;2022-10-23T03:10:54;99912.53;;;13.12;80.54
11343;BME280;5726;42.160;24.746;2022-10-23T03:13:19;99907.88;;;12.86;82.56
11343;BME280;5726;42.160;24.746;2022-10-23T03:15:45;99907.19;;;12.57;83.92
11343;BME280;5726;42.160;24.746;2022-10-23T03:18:10;99908.41;;;12.64;83.75
11343;BME280;5726;42.160;24.746;2022-10-23T03:20:36;99913.03;;;12.45;84.69
11343;BME280;5726;42.160;24.746;2022-10-23T03:23:01;99907.94;;;12.44;85.22
11343;BME280;5726;42.160;24.746;2022-10-23T03:25:27;99911.63;;;12.48;84.98
11343;BME280;5726;42.160;24.746;2022-10-23T03:27:52;99924.06;;;12.44;85.80
11343;BME280;5726;42.160;24.746;2022-10-23T03:30:18;99915.63;;;12.32;86.93
11343;BME280;5726;42.160;24.746;2022-10-23T03:32:43;99924.00;;;12.49;85.89
11343;BME280;5726;42.160;24.746;2022-10-23T03:35:09;99925.06;;;12.48;86.10
11343;BME280;5726;42.160;24.746;2022-10-23T03:37:34;99930.38;;;12.71;84.25
11343;BME280;5726;42.160;24.746;2022-10-23T03:40:00;99926.16;;;12.65;84.46
11343;BME280;5726;42.160;24.746;2022-10-23T03:42:25;99925.97;;;13.12;81.36
11343;BME280;5726;42.160;24.746;2022-10-23T03:44:50;99914.16;;;13.26;80.26
11343;BME280;5726;42.160;24.746;2022-10-23T03:47:16;99907.13;;;13.43;79.45
11343;BME280;5726;42.160;24.746;2022-10-23T03:49:42;99916.41;;;13.51;78.59
11343;BME280;5726;42.160;24.746;2022-10-23T03:52:07;99931.44;;;13.38;79.53
11343;BME280;5726;42.160;24.746;2022-10-23T03:54:33;99932.75;;;13.41;79.68
11343;BME280;5726;42.160;24.746;2022-10-23T03:56:58;99927.69;;;13.53;79.12
11343;BME280;5726;42.160;24.746;2022-10-23T03:59:25;99929.00;;;13.69;78.20
11343;BME280;5726;42.160;24.746;2022-10-23T04:01:51;99936.41;;;13.77;77.44
11343;BME280;5726;42.160;24.746;2022-10-23T04:04:16;99924.81;;;13.76;77.63
11343;BME280;5726;42.160;24.746;2022-10-23T04:06:42;99914.84;;;13.77;77.48
11343;BME280;5726;42.160;24.746;2022-10-23T04:09:07;99915.94;;;13.89;76.80
11343;BME280;5726;42.160;24.746;2022-10-23T04:11:33;99929.22;;;13.85;76.82
11343;BME280;5726;42.160;24.746;2022-10-23T04:13:58;99929.09;;;13.77;77.80
11343;BME280;5726;42.160;24.746;2022-10-23T04:16:24;99928.22;;;14.08;76.34
11343;BME280;5726;42.160;24.746;2022-10-23T04:18:50;99934.00;;;14.02;76.14
11343;BME280;5726;42.160;24.746;2022-10-23T04:21:15;99946.81;;;14.10;76.13
11343;BME280;5726;42.160;24.746;2022-10-23T04:23:41;99944.50;;;14.17;75.70
11343;BME280;5726;42.160;24.746;2022-10-23T04:26:07;99952.31;;;14.05;76.20
11343;BME280;5726;42.160;24.746;2022-10-23T04:28:32;99943.31;;;14.09;76.58
11343;BME280;5726;42.160;24.746;2022-10-23T04:30:58;99941.63;;;14.13;76.52
11343;BME280;5726;42.160;24.746;2022-10-23T04:33:23;99940.50;;;14.28;75.72
11343;BME280;5726;42.160;24.746;2022-10-23T04:35:49;99943.00;;;14.24;76.37
11343;BME280;5726;42.160;24.746;2022-10-23T04:38:14;99940.47;;;14.41;75.23
11343;BME280;5726;42.160;24.746;2022-10-23T04:40:40;99934.69;;;14.47;74.29
11343;BME280;5726;42.160;24.746;2022-10-23T04:43:05;99933.44;;;14.67;72.63
11343;BME280;5726;42.160;24.746;2022-10-23T04:45:30;99938.19;;;14.83;71.28
11343;BME280;5726;42.160;24.746;2022-10-23T04:47:56;99944.50;;;14.79;71.05
11343;BME280;5726;42.160;24.746;2022-10-23T04:50:22;99943.06;;;14.59;72.15
11343;BME280;5726;42.160;24.746;2022-10-23T04:52:47;99943.88;;;14.82;71.10
11343;BME280;5726;42.160;24.746;2022-10-23T04:55:13;99946.38;;;14.78;70.63
11343;BME280;5726;42.160;24.746;2022-10-23T04:57:39;99938.38;;;14.86;70.31
11343;BME280;5726;42.160;24.746;2022-10-23T05:00:07;99939.00;;;15.27;68.17
11343;BME280;5726;42.160;24.746;2022-10-23T05:02:33;99946.97;;;15.32;67.63
11343;BME280;5726;42.160;24.746;2022-10-23T05:04:59;99948.75;;;15.36;67.35
11343;BME280;5726;42.160;24.746;2022-10-23T05:07:24;99945.56;;;15.65;66.30
11343;BME280;5726;42.160;24.746;2022-10-23T05:09:50;99951.16;;;15.68;66.12
11343;BME280;5726;42.160;24.746;2022-10-23T05:12:15;99938.50;;;15.77;65.40
11343;BME280;5726;42.160;24.746;2022-10-23T05:14:41;99952.59;;;16.04;63.62
11343;BME280;5726;42.160;24.746;2022-10-23T05:17:34;99949.41;;;16.58;61.10
11343;BME280;5726;42.160;24.746;2022-10-23T05:20:02;99948.28;;;16.67;60.28
11343;BME280;5726;42.160;24.746;2022-10-23T05:22:31;99950.69;;;16.94;58.81
11343;BME280;5726;42.160;24.746;2022-10-23T05:24:58;99947.38;;;17.22;57.98
11343;BME280;5726;42.160;24.746;2022-10-23T05:27:26;99945.25;;;17.53;57.04
11343;BME280;5726;42.160;24.746;2022-10-23T05:29:51;99953.63;;;17.76;55.72
11343;BME280;5726;42.160;24.746;2022-10-23T05:32:16;99953.84;;;18.00;54.51
11343;BME280;5726;42.160;24.746;2022-10-23T05:34:42;99958.66;;;18.32;53.35
11343;BME280;5726;42.160;24.746;2022-10-23T05:37:09;99973.38;;;18.60;52.46
11343;BME280;5726;42.160;24.746;2022-10-23T05:39:36;99972.19;;;18.89;51.15
11343;BME280;5726;42.160;24.746;2022-10-23T05:42:02;99977.06;;;19.04;50.56
11343;BME280;5726;42.160;24.746;2022-10-23T05:44:27;99975.19;;;19.37;50.58
11343;BME280;5726;42.160;24.746;2022-10-23T05:46:52;99980.38;;;19.62;49.18
11343;BME280;5726;42.160;24.746;2022-10-23T05:49:18;99984.88;;;19.90;48.50
11343;BME280;5726;42.160;24.746;2022-10-23T05:51:43;99986.28;;;20.08;48.07
11343;BME280;5726;42.160;24.746;2022-10-23T05:54:09;99988.56;;;20.18;46.77
11343;BME280;5726;42.160;24.746;2022-10-23T05:56:35;99994.91;;;20.34;46.80
11343;BME280;5726;42.160;24.746;2022-10-23T05:59:01;100001.59;;;20.36;46.42
11343;BME280;5726;42.160;24.746;2022-10-23T06:01:27;100000.78;;;20.48;46.42
11343;BME280;5726;42.160;24.746;2022-10-23T06:03:52;99998.88;;;20.84;45.66
11343;BME280;5726;42.160;24.746;2022-10-23T06:06:18;99992.69;;;21.11;46.93
11343;BME280;5726;42.160;24.746;2022-10-23T06:08:43;100003.59;;;21.38;45.69
11343;BME280;5726;42.160;24.746;2022-10-23T06:11:11;100006.53;;;21.45;44.29
11343;BME280;5726;42.160;24.746;2022-10-23T06:13:37;100006.59;;;21.60;43.65
11343;BME280;5726;42.160;24.746;2022-10-23T06:16:17;100013.81;;;21.68;44.23
11343;BME280;5726;42.160;24.746;2022-10-23T06:18:44;100011.84;;;21.80;43.38
11343;BME280;5726;42.160;24.746;2022-10-23T06:21:10;100003.94;;;21.91;43.57
11343;BME280;5726;42.160;24.746;2022-10-23T06:23:37;100015.00;;;21.82;43.42
11343;BME280;5726;42.160;24.746;2022-10-23T06:26:04;100017.41;;;21.99;42.48
11343;BME280;5726;42.160;24.746;2022-10-23T06:28:30;100022.28;;;21.63;43.79
11343;BME280;5726;42.160;24.746;2022-10-23T06:30:55;100030.72;;;21.58;43.61
11343;BME280;5726;42.160;24.746;2022-10-23T06:33:20;100025.84;;;21.52;45.17
11343;BME280;5726;42.160;24.746;2022-10-23T06:35:46;100027.84;;;21.27;44.67
11343;BME280;5726;42.160;24.746;2022-10-23T06:38:12;100038.50;;;21.32;45.05
11343;BME280;5726;42.160;24.746;2022-10-23T06:40:37;100044.91;;;21.24;45.17
11343;BME280;5726;42.160;24.746;2022-10-23T06:43:04;100054.53;;;21.34;45.16
11343;BME280;5726;42.160;24.746;2022-10-23T06:45:30;100057.53;;;21.17;45.45
11343;BME280;5726;42.160;24.746;2022-10-23T06:47:58;100066.56;;;21.45;44.63
11343;BME280;5726;42.160;24.746;2022-10-23T06:50:24;100059.41;;;21.40;44.65
11343;BME280;5726;42.160;24.746;2022-10-23T06:52:50;100066.38;;;21.26;45.37
11343;BME280;5726;42.160;24.746;2022-10-23T06:55:16;100058.59;;;21.52;44.51
11343;BME280;5726;42.160;24.746;2022-10-23T06:57:42;100057.56;;;21.44;44.87
11343;BME280;5726;42.160;24.746;2022-10-23T07:00:08;100077.50;;;21.33;45.22
11343;BME280;5726;42.160;24.746;2022-10-23T07:02:34;100080.72;;;21.23;45.57
11343;BME280;5726;42.160;24.746;2022-10-23T07:05:00;100081.16;;;21.25;45.59
11343;BME280;5726;42.160;24.746;2022-10-23T07:07:25;100091.25;;;21.36;45.34
11343;BME280;5726;42.160;24.746;2022-10-23T07:09:50;100090.00;;;21.34;45.89
11343;BME280;5726;42.160;24.746;2022-10-23T07:12:16;100094.31;;;21.47;45.94
11343;BME280;5726;42.160;24.746;2022-10-23T07:14:41;100087.44;;;21.64;45.45
11343;BME280;5726;42.160;24.746;2022-10-23T07:17:07;100092.84;;;21.76;45.22
11343;BME280;5726;42.160;24.746;2022-10-23T07:19:32;100081.53;;;21.62;45.97
11343;BME280;5726;42.160;24.746;2022-10-23T07:21:57;100079.66;;;21.78;45.77
11343;BME280;5726;42.160;24.746;2022-10-23T07:24:23;100086.91;;;21.86;45.76
11343;BME280;5726;42.160;24.746;2022-10-23T07:26:48;100083.22;;;21.94;45.35
11343;BME280;5726;42.160;24.746;2022-10-23T07:29:14;100078.44;;;21.91;45.34
11343;BME280;5726;42.160;24.746;2022-10-23T07:31:39;100078.59;;;21.83;46.18
11343;BME280;5726;42.160;24.746;2022-10-23T07:34:05;100087.28;;;22.00;46.17
11343;BME280;5726;42.160;24.746;2022-10-23T07:36:31;100097.72;;;22.10;45.91
11343;BME280;5726;42.160;24.746;2022-10-23T07:38:56;100074.34;;;22.40;45.93
11343;BME280;5726;42.160;24.746;2022-10-23T07:41:22;100081.28;;;22.37;46.05
11343;BME280;5726;42.160;24.746;2022-10-23T07:43:47;100082.00;;;22.34;46.58
11343;BME280;5726;42.160;24.746;2022-10-23T07:46:13;100076.72;;;22.41;46.84
11343;BME280;5726;42.160;24.746;2022-10-23T07:48:38;100064.88;;;22.53;47.08
11343;BME280;5726;42.160;24.746;2022-10-23T07:51:06;100078.31;;;22.58;46.91
11343;BME280;5726;42.160;24.746;2022-10-23T07:53:33;100081.13;;;22.61;47.35
11343;BME280;5726;42.160;24.746;2022-10-23T07:56:01;100085.50;;;22.81;46.76
11343;BME280;5726;42.160;24.746;2022-10-23T07:58:28;100089.84;;;22.97;46.38
11343;BME280;5726;42.160;24.746;2022-10-23T08:00:59;100075.50;;;23.19;46.29
11343;BME280;5726;42.160;24.746;2022-10-23T08:03:31;100077.59;;;23.25;46.16
11343;BME280;5726;42.160;24.746;2022-10-23T08:05:57;100076.53;;;23.49;46.46
11343;BME280;5726;42.160;24.746;2022-10-23T08:08:24;100084.44;;;23.69;45.04
11343;BME280;5726;42.160;24.746;2022-10-23T08:10:53;100078.31;;;23.75;45.40
11343;BME280;5726;42.160;24.746;2022-10-23T08:13:20;100074.53;;;23.83;45.86
11343;BME280;5726;42.160;24.746;2022-10-23T08:15:47;100079.50;;;23.97;46.77
11343;BME280;5726;42.160;24.746;2022-10-23T08:18:13;100078.00;;;23.99;47.08
11343;BME280;5726;42.160;24.746;2022-10-23T08:20:39;100073.91;;;23.90;47.05
11343;BME280;5726;42.160;24.746;2022-10-23T08:23:06;100073.50;;;24.10;46.96
11343;BME280;5726;42.160;24.746;2022-10-23T08:25:32;100076.69;;;24.12;47.67
11343;BME280;5726;42.160;24.746;2022-10-23T08:27:57;100078.38;;;24.20;47.26
11343;BME280;5726;42.160;24.746;2022-10-23T08:30:23;100068.88;;;24.33;46.22
11343;BME280;5726;42.160;24.746;2022-10-23T08:32:48;100076.25;;;24.32;46.54
11343;BME280;5726;42.160;24.746;2022-10-23T08:35:14;100066.19;;;24.36;47.28
11343;BME280;5726;42.160;24.746;2022-10-23T08:37:40;100074.09;;;24.41;46.69
11343;BME280;5726;42.160;24.746;2022-10-23T08:40:05;100065.22;;;24.29;46.56
11343;BME280;5726;42.160;24.746;2022-10-23T08:42:36;100071.44;;;24.45;46.97
11343;BME280;5726;42.160;24.746;2022-10-23T08:45:04;100063.25;;;24.48;46.91
11343;BME280;5726;42.160;24.746;2022-10-23T08:47:38;100044.78;;;24.67;46.46
11343;BME280;5726;42.160;24.746;2022-10-23T08:50:28;100050.22;;;24.64;46.50
11343;BME280;5726;42.160;24.746;2022-10-23T08:53:30;100070.19;;;24.64;46.71
11343;BME280;5726;42.160;24.746;2022-10-23T08:56:19;100070.31;;;24.71;46.71
11343;BME280;5726;42.160;24.746;2022-10-23T08:58:49;100047.63;;;24.74;46.38
11343;BME280;5726;42.160;24.746;2022-10-23T09:01:37;100062.59;;;25.02;45.70
11343;BME280;5726;42.160;24.746;2022-10-23T09:04:05;100067.41;;;24.87;46.82
11343;BME280;5726;42.160;24.746;2022-10-23T09:06:35;100073.63;;;25.06;46.34
11343;BME280;5726;42.160;24.746;2022-10-23T09:09:44;100028.09;;;25.31;45.51
11343;BME280;5726;42.160;24.746;2022-10-23T09:12:29;100057.13;;;25.32;45.44
11343;BME280;5726;42.160;24.746;2022-10-23T09:14:59;100070.47;;;25.33;45.22
11343;BME280;5726;42.160;24.746;2022-10-23T09:17:31;100064.72;;;25.42;45.15
11343;BME280;5726;42.160;24.746;2022-10-23T09:22:31;100068.47;;;25.30;45.17
11343;BME280;5726;42.160;24.746;2022-10-23T09:24:57;100059.22;;;25.42;44.51
11343;BME280;5726;42.160;24.746;2022-10-23T09:27:22;100059.28;;;25.48;44.89
11343;BME280;5726;42.160;24.746;2022-10-23T09:29:50;100052.63;;;25.49;44.23
11343;BME280;5726;42.160;24.746;2022-10-23T09:32:16;100064.66;;;25.38;44.84
11343;BME280;5726;42.160;24.746;2022-10-23T09:34:53;100066.03;;;25.54;44.60
11343;BME280;5726;42.160;24.746;2022-10-23T09:37:27;100055.75;;;25.48;43.83
11343;BME280;5726;42.160;24.746;2022-10-23T09:40:01;100070.34;;;25.52;43.51
11343;BME280;5726;42.160;24.746;2022-10-23T09:42:27;100061.31;;;25.22;44.69
11343;BME280;5726;42.160;24.746;2022-10-23T09:44:53;100047.22;;;25.24;44.89
11343;BME280;5726;42.160;24.746;2022-10-23T09:47:22;100057.13;;;25.32;43.70
11343;BME280;5726;42.160;24.746;2022-10-23T09:49:51;100057.97;;;25.36;42.38
11343;BME280;5726;42.160;24.746;2022-10-23T09:54:47;100049.63;;;25.29;43.32
11343;BME280;5726;42.160;24.746;2022-10-23T09:57:36;100045.16;;;25.47;42.42
11343;BME280;5726;42.160;24.746;2022-10-23T10:02:41;100047.66;;;25.58;42.32
11343;BME280;5726;42.160;24.746;2022-10-23T10:05:24;100027.28;;;25.63;41.60
11343;BME280;5726;42.160;24.746;2022-10-23T10:08:25;100035.28;;;25.42;42.40
11343;BME280;5726;42.160;24.746;2022-10-23T10:11:00;100026.09;;;25.60;42.04
11343;BME280;5726;42.160;24.746;2022-10-23T10:16:23;100026.06;;;25.57;39.50
11343;BME280;5726;42.160;24.746;2022-10-23T10:19:06;100024.31;;;25.71;40.14
11343;BME280;5726;42.160;24.746;2022-10-23T10:26:57;100016.78;;;26.01;39.48
11343;BME280;5726;42.160;24.746;2022-10-23T10:32:39;100014.78;;;25.98;39.84
11343;BME280;5726;42.160;24.746;2022-10-23T10:40:36;100003.50;;;26.10;39.06
11343;BME280;5726;42.160;24.746;2022-10-23T10:43:23;100002.84;;;25.84;39.44
11343;BME280;5726;42.160;24.746;2022-10-23T10:46:02;99982.19;;;26.00;37.95
11343;BME280;5726;42.160;24.746;2022-10-23T10:54:10;99974.59;;;25.50;37.31
11343;BME280;5726;42.160;24.746;2022-10-23T10:56:41;99981.34;;;25.60;37.83
11343;BME280;5726;42.160;24.746;2022-10-23T11:01:44;99985.41;;;26.05;36.86
11343;BME280;5726;42.160;24.746;2022-10-23T11:07:10;99978.41;;;26.18;36.38
11343;BME280;5726;42.160;24.746;2022-10-23T11:09:38;99975.09;;;25.96;37.09
11343;BME280;5726;42.160;24.746;2022-10-23T11:12:05;99979.28;;;26.26;37.51
11343;BME280;5726;42.160;24.746;2022-10-23T11:14:32;99967.00;;;26.13;37.43
11343;BME280;5726;42.160;24.746;2022-10-23T11:17:10;99968.16;;;26.08;36.58
11343;BME280;5726;42.160;24.746;2022-10-23T11:22:36;99967.66;;;25.99;36.66
11343;BME280;5726;42.160;24.746;2022-10-23T11:28:05;99961.78;;;26.44;35.33
11343;BME280;5726;42.160;24.746;2022-10-23T11:34:07;99937.72;;;26.31;36.11
11343;BME280;5726;42.160;24.746;2022-10-23T11:36:57;99935.25;;;26.19;35.45
11343;BME280;5726;42.160;24.746;2022-10-23T11:39:30;99927.28;;;26.07;35.73
11343;BME280;5726;42.160;24.746;2022-10-23T11:47:24;99929.84;;;26.29;35.24
11343;BME280;5726;42.160;24.746;2022-10-23T11:49:49;99933.00;;;26.28;34.99
11343;BME280;5726;42.160;24.746;2022-10-23T11:52:23;99920.88;;;25.96;35.83
11343;BME280;5726;42.160;24.746;2022-10-23T11:55:22;99918.59;;;26.05;35.55
11343;BME280;5726;42.160;24.746;2022-10-23T12:00:30;99919.63;;;26.30;34.80
11343;BME280;5726;42.160;24.746;2022-10-23T12:02:57;99911.81;;;26.35;34.72
11343;BME280;5726;42.160;24.746;2022-10-23T12:07:59;99898.97;;;26.03;36.08
11343;BME280;5726;42.160;24.746;2022-10-23T12:10:30;99914.03;;;26.23;35.76
11343;BME280;5726;42.160;24.746;2022-10-23T12:13:04;99916.41;;;26.21;35.05
11343;BME280;5726;42.160;24.746;2022-10-23T12:15:33;99914.81;;;26.20;34.82
11343;BME280;5726;42.160;24.746;2022-10-23T12:18:28;99918.75;;;26.19;35.19
11343;BME280;5726;42.160;24.746;2022-10-23T12:21:01;99903.88;;;26.27;35.10
11343;BME280;5726;42.160;24.746;2022-10-23T12:39:58;99914.50;;;26.28;35.61
11343;BME280;5726;42.160;24.746;2022-10-23T12:42:27;99915.16;;;26.15;35.67
11343;BME280;5726;42.160;24.746;2022-10-23T12:45:02;99916.63;;;26.02;35.68
11343;BME280;5726;42.160;24.746;2022-10-23T12:47:28;99899.66;;;25.90;35.95
11343;BME280;5726;42.160;24.746;2022-10-23T12:49:54;99913.44;;;25.97;36.16
11343;BME280;5726;42.160;24.746;2022-10-23T12:52:20;99913.38;;;26.33;35.06
11343;BME280;5726;42.160;24.746;2022-10-23T12:54:46;99904.56;;;26.17;35.36
11343;BME280;5726;42.160;24.746;2022-10-23T12:57:26;99901.34;;;26.04;35.15
11343;BME280;5726;42.160;24.746;2022-10-23T13:00:01;99908.34;;;25.95;35.83
11343;BME280;5726;42.160;24.746;2022-10-23T13:02:31;99905.41;;;26.21;34.97
11343;BME280;5726;42.160;24.746;2022-10-23T13:04:59;99903.25;;;26.00;35.87
11343;BME280;5726;42.160;24.746;2022-10-23T13:07:28;99916.06;;;25.83;35.47
11343;BME280;5726;42.160;24.746;2022-10-23T13:09:56;99905.13;;;25.90;35.92
11343;BME280;5726;42.160;24.746;2022-10-23T13:12:28;99916.28;;;26.07;35.47
11343;BME280;5726;42.160;24.746;2022-10-23T13:15:13;99919.50;;;26.16;35.63
11343;BME280;5726;42.160;24.746;2022-10-23T13:18:01;99919.34;;;25.95;36.11
11343;BME280;5726;42.160;24.746;2022-10-23T13:20:33;99907.50;;;25.88;36.64
11343;BME280;5726;42.160;24.746;2022-10-23T13:25:30;99920.50;;;25.98;35.67
11343;BME280;5726;42.160;24.746;2022-10-23T13:28:11;99918.00;;;26.25;35.53
11343;BME280;5726;42.160;24.746;2022-10-23T13:30:43;99922.94;;;26.02;35.21
11343;BME280;5726;42.160;24.746;2022-10-23T13:36:47;99915.84;;;26.01;35.27
11343;BME280;5726;42.160;24.746;2022-10-23T13:38:41;99924.50;;;26.03;34.94
11343;BME280;5726;42.160;24.746;2022-10-23T13:41:16;99918.59;;;26.05;34.69
11343;BME280;5726;42.160;24.746;2022-10-23T13:43:43;99907.88;;;25.90;34.78
11343;BME280;5726;42.160;24.746;2022-10-23T13:46:16;99908.25;;;25.88;35.11
11343;BME280;5726;42.160;24.746;2022-10-23T13:48:42;99927.81;;;25.80;34.95
11343;BME280;5726;42.160;24.746;2022-10-23T13:51:13;99921.75;;;26.03;35.08
11343;BME280;5726;42.160;24.746;2022-10-23T13:53:40;99916.31;;;26.10;34.98
11343;BME280;5726;42.160;24.746;2022-10-23T13:56:07;99911.84;;;25.92;34.96
11343;BME280;5726;42.160;24.746;2022-10-23T13:58:33;99912.34;;;26.04;34.46
11343;BME280;5726;42.160;24.746;2022-10-23T14:00:59;99902.09;;;25.98;34.59
11343;BME280;5726;42.160;24.746;2022-10-23T14:03:25;99912.25;;;25.94;34.74
11343;BME280;5726;42.160;24.746;2022-10-23T14:05:50;99912.16;;;25.87;34.89
11343;BME280;5726;42.160;24.746;2022-10-23T14:08:16;99897.66;;;25.87;34.98
11343;BME280;5726;42.160;24.746;2022-10-23T14:10:42;99907.22;;;26.06;34.82
11343;BME280;5726;42.160;24.746;2022-10-23T14:13:07;99890.09;;;25.77;35.73
11343;BME280;5726;42.160;24.746;2022-10-23T14:15:32;99897.97;;;25.78;35.77
11343;BME280;5726;42.160;24.746;2022-10-23T14:17:58;99900.31;;;25.76;35.51
11343;BME280;5726;42.160;24.746;2022-10-23T14:20:23;99901.81;;;25.67;35.52
11343;BME280;5726;42.160;24.746;2022-10-23T14:22:49;99904.72;;;25.51;35.97
11343;BME280;5726;42.160;24.746;2022-10-23T14:25:15;99902.44;;;25.57;36.24
11343;BME280;5726;42.160;24.746;2022-10-23T14:27:40;99904.81;;;25.58;35.75
11343;BME280;5726;42.160;24.746;2022-10-23T14:30:06;99910.97;;;25.48;36.35
11343;BME280;5726;42.160;24.746;2022-10-23T14:32:32;99912.97;;;25.51;35.92
11343;BME280;5726;42.160;24.746;2022-10-23T14:34:58;99910.97;;;25.48;36.20
11343;BME280;5726;42.160;24.746;2022-10-23T14:37:23;99913.72;;;25.48;35.79
11343;BME280;5726;42.160;24.746;2022-10-23T14:39:48;99910.97;;;25.48;36.12
11343;BME280;5726;42.160;24.746;2022-10-23T14:42:14;99910.19;;;25.12;36.57
11343;BME280;5726;42.160;24.746;2022-10-23T14:44:39;99905.66;;;25.26;36.47
11343;BME280;5726;42.160;24.746;2022-10-23T14:47:05;99915.53;;;25.31;36.53
11343;BME280;5726;42.160;24.746;2022-10-23T14:49:31;99921.75;;;25.28;36.41
11343;BME280;5726;42.160;24.746;2022-10-23T14:51:57;99910.81;;;25.31;36.77